Terminal Aerodrome Forecast
Issued by NWS Blacksburg, VA

Home | Current Version | Previous Version | Text Only | Print | Product List | Glossary On
Versions: 1 2 3 4 5 6 7 8 9 10 11 12 13 14 15 16 17 18 19 20 21 22 23 24 25 26 27 28 29 30 31 32 33 34 35 36 37
496
FTUS41 KRNK 251350 AAA
TAFROA
TAF AMD
KROA 251350Z 2514/2612 15010KT P6SM -SHRA BKN060
      TEMPO 2514/2515 22012G22KT 3SM -TSRA OVC025CB
     FM251700 26010KT P6SM BKN040
     FM252100 28020G30KT P6SM FEW045
     FM260800 30015G24KT P6SM FEW250=

USA.gov is the U.S. government's official web portal to all federal, state and local government web resources and services.